createdAt,value
2017-02-20T00:00:21.544Z,1007.34
2017-02-20T00:01:31.372Z,1007.33
2017-02-20T00:02:40.703Z,1007.28
2017-02-20T00:03:50.908Z,1007.34
2017-02-20T00:05:00.239Z,1007.33
2017-02-20T00:06:10.010Z,1007.31
2017-02-20T00:07:19.839Z,1007.29
2017-02-20T00:08:29.161Z,1007.32
2017-02-20T00:09:38.939Z,1007.32
2017-02-20T00:10:48.692Z,1007.29
2017-02-20T00:11:58.020Z,1007.35
2017-02-20T00:13:08.705Z,1007.35
2017-02-20T00:14:18.898Z,1007.34
2017-02-20T00:15:28.677Z,1007.33
2017-02-20T00:16:38.421Z,1007.32
2017-02-20T00:17:48.217Z,1007.35
2017-02-20T00:18:58.019Z,1007.31
2017-02-20T00:20:08.641Z,1007.3
2017-02-20T00:21:17.954Z,1007.31
2017-02-20T00:22:28.154Z,1007.35
2017-02-20T00:23:38.371Z,1007.33
2017-02-20T00:24:48.616Z,1007.3
2017-02-20T00:25:58.818Z,1007.32
2017-02-20T00:27:08.135Z,1007.3
2017-02-20T00:28:17.892Z,1007.33
2017-02-20T00:29:28.525Z,1007.33
2017-02-20T00:30:38.338Z,1007.28
2017-02-20T00:31:48.087Z,1007.28
2017-02-20T00:32:59.169Z,1007.26
2017-02-20T00:34:09.794Z,1007.22
2017-02-20T00:35:19.571Z,1007.22
2017-02-20T00:36:30.254Z,1007.2
2017-02-20T00:37:39.565Z,1007.19
2017-02-20T00:38:49.322Z,1007.15
2017-02-20T00:39:59.528Z,1007.19
2017-02-20T00:41:09.321Z,1007.18
2017-02-20T00:42:19.754Z,1007.22
2017-02-20T00:43:29.952Z,1007.23
2017-02-20T00:44:40.181Z,1007.27
2017-02-20T00:45:49.524Z,1007.24
2017-02-20T00:46:59.279Z,1007.19
2017-02-20T00:48:09.961Z,1007.17
2017-02-20T00:49:19.729Z,1007.21
2017-02-20T00:50:29.034Z,1007.16
2017-02-20T00:51:38.791Z,1007.13
2017-02-20T00:52:48.570Z,1007.12
2017-02-20T00:53:57.926Z,1007.08
2017-02-20T00:55:08.135Z,1007.07
2017-02-20T00:56:17.453Z,1007.06
2017-02-20T00:57:26.782Z,1007.07
2017-02-20T00:58:36.104Z,1007.07
2017-02-20T00:59:46.353Z,1007.06
2017-02-20T01:00:55.706Z,1007.02
2017-02-20T01:02:05.507Z,1007
2017-02-20T01:03:15.287Z,1007.05
2017-02-20T01:04:25.500Z,1007.05
2017-02-20T01:05:35.749Z,1007.07
2017-02-20T01:06:45.512Z,1007.02
2017-02-20T01:07:55.289Z,1007.04
2017-02-20T01:09:05.053Z,1007.02
2017-02-20T01:10:14.810Z,1007.02
2017-02-20T01:11:25.055Z,1006.93
2017-02-20T01:12:34.374Z,1006.92
2017-02-20T01:13:43.679Z,1006.89
2017-02-20T01:14:53.447Z,1006.85
2017-02-20T01:16:03.663Z,1006.9
2017-02-20T01:17:13.046Z,1006.91
2017-02-20T01:18:22.374Z,1006.87
2017-02-20T01:19:31.685Z,1006.86
2017-02-20T01:20:41.894Z,1006.88
2017-02-20T01:21:52.518Z,1006.83
2017-02-20T01:23:02.794Z,1006.8
2017-02-20T01:24:12.996Z,1006.81
2017-02-20T01:25:23.183Z,1006.79
2017-02-20T01:26:33.374Z,1006.77
2017-02-20T01:27:43.575Z,1006.76
2017-02-20T01:28:54.246Z,1006.83
2017-02-20T01:30:04.442Z,1006.8
2017-02-20T01:31:14.623Z,1006.84
2017-02-20T01:32:24.444Z,1006.85
2017-02-20T01:33:34.661Z,1006.82
2017-02-20T01:34:45.491Z,1006.86
2017-02-20T01:35:55.245Z,1006.8
2017-02-20T01:37:04.561Z,1006.8
2017-02-20T01:38:15.234Z,1006.81
2017-02-20T01:39:24.995Z,1006.79
2017-02-20T01:40:34.837Z,1006.75
2017-02-20T01:41:45.034Z,1006.76
2017-02-20T01:42:55.227Z,1006.74
2017-02-20T01:44:04.972Z,1006.72
2017-02-20T01:45:14.313Z,1006.72
2017-02-20T01:46:24.252Z,1006.69
2017-02-20T01:47:33.624Z,1006.68
2017-02-20T01:48:42.945Z,1006.69
2017-02-20T01:49:52.738Z,1006.7
2017-02-20T01:51:02.943Z,1006.69
2017-02-20T01:52:13.244Z,1006.67
2017-02-20T01:53:23.430Z,1006.61
2017-02-20T01:54:33.204Z,1006.59
2017-02-20T01:55:42.529Z,1006.64
2017-02-20T01:56:52.717Z,1006.59
2017-02-20T01:58:02.516Z,1006.62
2017-02-20T01:59:11.828Z,1006.64
2017-02-20T02:00:21.134Z,1006.61
2017-02-20T02:01:30.889Z,1006.65
2017-02-20T02:02:40.207Z,1006.62
2017-02-20T02:03:50.889Z,1006.57
2017-02-20T02:05:00.641Z,1006.59
2017-02-20T02:06:11.718Z,1006.59
2017-02-20T02:07:21.520Z,1006.57
2017-02-20T02:08:31.697Z,1006.55
2017-02-20T02:09:41.974Z,1006.55
2017-02-20T02:10:52.172Z,1006.52
2017-02-20T02:12:02.788Z,1006.56
2017-02-20T02:13:13.001Z,1006.55
2017-02-20T02:14:22.752Z,1006.51
2017-02-20T02:15:32.131Z,1006.51
2017-02-20T02:16:41.889Z,1006.49
2017-02-20T02:17:51.226Z,1006.48
2017-02-20T02:19:01.005Z,1006.52
2017-02-20T02:20:10.750Z,1006.59
2017-02-20T02:21:20.177Z,1006.53
2017-02-20T02:22:30.390Z,1006.55
2017-02-20T02:23:40.140Z,1006.57
2017-02-20T02:24:51.213Z,1006.59
2017-02-20T02:26:01.422Z,1006.51
2017-02-20T02:27:11.820Z,1006.45
2017-02-20T02:28:21.614Z,1006.45
2017-02-20T02:29:31.814Z,1006.46
2017-02-20T02:30:42.047Z,1006.41
2017-02-20T02:31:51.833Z,1006.45
2017-02-20T02:33:01.229Z,1006.45
2017-02-20T02:34:10.556Z,1006.46
2017-02-20T02:35:19.900Z,1006.47
2017-02-20T02:36:30.106Z,1006.43
2017-02-20T02:37:39.426Z,1006.47
2017-02-20T02:38:49.259Z,1006.49
2017-02-20T02:39:59.038Z,1006.45
2017-02-20T02:41:08.367Z,1006.44
2017-02-20T02:42:17.687Z,1006.48
2017-02-20T02:43:27.433Z,1006.45
2017-02-20T02:44:36.809Z,1006.41
2017-02-20T02:45:47.046Z,1006.45
2017-02-20T02:46:56.808Z,1006.45
2017-02-20T02:48:06.623Z,1006.41
2017-02-20T02:49:16.374Z,1006.42
2017-02-20T02:50:26.643Z,1006.43
2017-02-20T02:51:36.412Z,1006.41
2017-02-20T02:52:46.189Z,1006.44
2017-02-20T02:53:55.958Z,1006.34
2017-02-20T02:55:05.764Z,1006.36
2017-02-20T02:56:15.561Z,1006.31
2017-02-20T02:57:25.322Z,1006.3
2017-02-20T02:58:35.523Z,1006.35
2017-02-20T02:59:45.300Z,1006.31
2017-02-20T03:00:55.502Z,1006.34
2017-02-20T03:02:05.323Z,1006.33
2017-02-20T03:03:15.104Z,1006.34
2017-02-20T03:04:24.878Z,1006.37
2017-02-20T03:05:34.206Z,1006.33
2017-02-20T03:06:43.972Z,1006.31
2017-02-20T03:07:53.797Z,1006.3
2017-02-20T03:09:03.566Z,1006.34
2017-02-20T03:10:13.771Z,1006.31
2017-02-20T03:11:23.532Z,1006.29
2017-02-20T03:12:33.305Z,1006.3
2017-02-20T03:13:43.111Z,1006.3
2017-02-20T03:14:53.312Z,1006.3
2017-02-20T03:16:02.649Z,1006.28
2017-02-20T03:17:12.426Z,1006.32
2017-02-20T03:18:22.195Z,1006.29
2017-02-20T03:19:32.897Z,1006.27
2017-02-20T03:20:42.665Z,1006.26
2017-02-20T03:21:52.865Z,1006.25
2017-02-20T03:23:02.204Z,1006.22
2017-02-20T03:24:12.425Z,1006.23
2017-02-20T03:25:22.223Z,1006.22
2017-02-20T03:26:32.040Z,1006.19
2017-02-20T03:27:41.797Z,1006.16
2017-02-20T03:28:52.434Z,1006.13
2017-02-20T03:30:02.243Z,1006.08
2017-02-20T03:31:12.076Z,1006.09
2017-02-20T03:32:21.835Z,1006.1
2017-02-20T03:33:31.159Z,1006.08
2017-02-20T03:34:41.808Z,1006.12
2017-02-20T03:35:52.049Z,1006.12
2017-02-20T03:37:02.310Z,1006.07
2017-02-20T03:38:12.552Z,1006.08
2017-02-20T03:39:22.321Z,1006.09
2017-02-20T03:40:32.082Z,1006.11
2017-02-20T03:41:42.295Z,1006.09
2017-02-20T03:42:52.136Z,1006.11
2017-02-20T03:44:02.334Z,1006.09
2017-02-20T03:45:12.550Z,1006.03
2017-02-20T03:46:23.218Z,1006.08
2017-02-20T03:47:32.981Z,1006.02
2017-02-20T03:48:42.822Z,1005.99
2017-02-20T03:49:52.615Z,1006.06
2017-02-20T03:51:02.380Z,1006.01
2017-02-20T03:52:12.150Z,1006.08
2017-02-20T03:53:21.931Z,1006.05
2017-02-20T03:54:31.728Z,1006.06
2017-02-20T03:55:41.525Z,1006
2017-02-20T03:56:51.282Z,1006.1
2017-02-20T03:58:01.036Z,1006.05
2017-02-20T03:59:10.789Z,1006.08
2017-02-20T04:00:21.476Z,1006.05
2017-02-20T04:01:31.239Z,1006.03
2017-02-20T04:02:40.987Z,1006.02
2017-02-20T04:03:50.762Z,1006.02
2017-02-20T04:05:00.975Z,1006
2017-02-20T04:06:10.812Z,1005.99
2017-02-20T04:07:20.141Z,1005.98
2017-02-20T04:08:30.802Z,1005.94
2017-02-20T04:09:40.572Z,1005.94
2017-02-20T04:10:50.337Z,1005.95
2017-02-20T04:12:00.248Z,1005.93
2017-02-20T04:13:09.579Z,1005.89
2017-02-20T04:14:19.788Z,1005.92
2017-02-20T04:15:29.990Z,1005.89
2017-02-20T04:16:39.735Z,1005.87
2017-02-20T04:17:49.540Z,1005.84
2017-02-20T04:18:59.293Z,1005.85
2017-02-20T04:20:09.042Z,1005.8
2017-02-20T04:21:18.825Z,1005.83
2017-02-20T04:22:28.137Z,1005.8
2017-02-20T04:23:37.938Z,1005.79
2017-02-20T04:24:47.695Z,1005.76
2017-02-20T04:25:57.920Z,1005.78
2017-02-20T04:27:07.698Z,1005.74
2017-02-20T04:28:17.476Z,1005.74
2017-02-20T04:29:26.839Z,1005.77
2017-02-20T04:30:36.637Z,1005.72
2017-02-20T04:31:46.402Z,1005.72
2017-02-20T04:32:57.051Z,1005.66
2017-02-20T04:34:06.836Z,1005.65
2017-02-20T04:35:16.646Z,1005.66
2017-02-20T04:36:26.435Z,1005.58
2017-02-20T04:37:36.633Z,1005.59
2017-02-20T04:38:46.390Z,1005.55
2017-02-20T04:39:55.703Z,1005.59
2017-02-20T04:41:05.528Z,1005.63
2017-02-20T04:42:15.739Z,1005.62
2017-02-20T04:43:25.078Z,1005.6
2017-02-20T04:44:35.291Z,1005.6
2017-02-20T04:45:45.500Z,1005.58
2017-02-20T04:46:55.762Z,1005.58
2017-02-20T04:48:05.959Z,1005.57
2017-02-20T04:49:15.716Z,1005.52
2017-02-20T04:50:25.941Z,1005.54
2017-02-20T04:51:35.707Z,1005.49
2017-02-20T04:52:45.956Z,1005.48
2017-02-20T04:53:55.717Z,1005.49
2017-02-20T04:55:05.522Z,1005.48
2017-02-20T04:56:15.275Z,1005.49
2017-02-20T04:57:25.037Z,1005.44
2017-02-20T04:58:34.862Z,1005.45
2017-02-20T04:59:44.611Z,1005.46
2017-02-20T05:00:54.392Z,1005.45
2017-02-20T05:02:04.599Z,1005.36
2017-02-20T05:03:13.924Z,1005.32
2017-02-20T05:04:23.724Z,1005.34
2017-02-20T05:05:34.369Z,1005.23
2017-02-20T05:06:44.138Z,1005.2
2017-02-20T05:07:53.900Z,1005.25
2017-02-20T05:09:03.652Z,1005.26
2017-02-20T05:10:13.930Z,1005.2
2017-02-20T05:11:24.159Z,1005.27
2017-02-20T05:12:33.907Z,1005.23
2017-02-20T05:13:43.665Z,1005.22
2017-02-20T05:14:53.459Z,1005.22
2017-02-20T05:16:03.736Z,1005.2
2017-02-20T05:17:13.513Z,1005.21
2017-02-20T05:18:23.270Z,1005.22
2017-02-20T05:19:33.029Z,1005.26
2017-02-20T05:20:43.234Z,1005.23
2017-02-20T05:21:53.058Z,1005.27
2017-02-20T05:23:03.272Z,1005.2
2017-02-20T05:24:12.594Z,1005.23
2017-02-20T05:25:21.924Z,1005.19
2017-02-20T05:26:31.687Z,1005.22
2017-02-20T05:27:41.504Z,1005.26
2017-02-20T05:28:52.153Z,1005.21
2017-02-20T05:30:01.938Z,1005.2
2017-02-20T05:31:12.143Z,1005.17
2017-02-20T05:32:21.925Z,1005.17
2017-02-20T05:33:31.754Z,1005.17
2017-02-20T05:34:42.395Z,1005.19
2017-02-20T05:35:52.145Z,1005.17
2017-02-20T05:37:01.902Z,1005.2
2017-02-20T05:38:12.103Z,1005.17
2017-02-20T05:39:21.956Z,1005.11
2017-02-20T05:40:31.717Z,1005.18
2017-02-20T05:41:41.919Z,1005.2
2017-02-20T05:42:52.152Z,1005.22
2017-02-20T05:44:01.913Z,1005.14
2017-02-20T05:45:11.866Z,1005.11
2017-02-20T05:46:21.663Z,1005.12
2017-02-20T05:47:31.860Z,1005.19
2017-02-20T05:48:42.065Z,1005.2
2017-02-20T05:49:51.819Z,1005.25
2017-02-20T05:51:01.620Z,1005.17
2017-02-20T05:52:11.845Z,1005.2
2017-02-20T05:53:22.490Z,1005.14
2017-02-20T05:54:32.259Z,1005.11
2017-02-20T05:55:42.027Z,1005.11
2017-02-20T05:56:51.982Z,1005.11
2017-02-20T05:58:01.771Z,1005.14
2017-02-20T05:59:11.556Z,1005.15
2017-02-20T06:00:22.233Z,1005.12
2017-02-20T06:01:32.026Z,1005.08
2017-02-20T06:02:42.283Z,1005.1
2017-02-20T06:03:52.920Z,1005.12
2017-02-20T06:05:03.118Z,1005.12
2017-02-20T06:06:12.883Z,1005.14
2017-02-20T06:07:22.680Z,1005.14
2017-02-20T06:08:32.495Z,1005.13
2017-02-20T06:09:42.258Z,1005.18
2017-02-20T06:10:52.488Z,1005.16
2017-02-20T06:12:02.264Z,1005.15
2017-02-20T06:13:12.030Z,1005.12
2017-02-20T06:14:21.855Z,1005.13
2017-02-20T06:15:31.628Z,1005.13
2017-02-20T06:16:42.269Z,1005.1
2017-02-20T06:17:52.031Z,1005.09
2017-02-20T06:19:01.795Z,1005.05
2017-02-20T06:20:12.493Z,1004.99
2017-02-20T06:21:23.135Z,1004.98
2017-02-20T06:22:32.475Z,1004.97
2017-02-20T06:23:42.692Z,1004.94
2017-02-20T06:24:53.354Z,1004.93
2017-02-20T06:26:03.598Z,1004.9
2017-02-20T06:27:13.376Z,1004.86
2017-02-20T06:28:23.585Z,1004.84
2017-02-20T06:29:33.340Z,1004.82
2017-02-20T06:30:43.108Z,1004.82
2017-02-20T06:31:53.809Z,1004.82
2017-02-20T06:33:04.030Z,1004.83
2017-02-20T06:34:14.235Z,1004.8
2017-02-20T06:35:23.984Z,1004.83
2017-02-20T06:36:33.739Z,1004.82
2017-02-20T06:37:43.571Z,1004.85
2017-02-20T06:38:54.664Z,1004.85
2017-02-20T06:40:04.891Z,1004.88
2017-02-20T06:41:14.218Z,1004.88
2017-02-20T06:42:23.983Z,1004.85
2017-02-20T06:43:34.236Z,1004.82
2017-02-20T06:44:43.994Z,1004.89
2017-02-20T06:45:53.760Z,1004.92
2017-02-20T06:47:03.948Z,1004.94
2017-02-20T06:48:14.593Z,1004.94
2017-02-20T06:49:24.442Z,1004.9
2017-02-20T06:50:34.648Z,1004.83
2017-02-20T06:51:44.856Z,1004.86
2017-02-20T06:52:54.634Z,1004.91
2017-02-20T06:54:05.303Z,1004.86
2017-02-20T06:55:15.568Z,1004.84
2017-02-20T06:56:25.343Z,1004.8
2017-02-20T06:57:35.106Z,1004.77
2017-02-20T06:58:44.868Z,1004.86
2017-02-20T06:59:55.081Z,1004.86
2017-02-20T07:01:05.326Z,1004.86
2017-02-20T07:02:15.103Z,1004.82
2017-02-20T07:03:24.876Z,1004.86
2017-02-20T07:04:35.085Z,1004.84
2017-02-20T07:05:45.735Z,1004.86
2017-02-20T07:06:55.584Z,1004.83
2017-02-20T07:08:05.349Z,1004.82
2017-02-20T07:09:15.566Z,1004.84
2017-02-20T07:10:25.351Z,1004.78
2017-02-20T07:11:35.109Z,1004.76
2017-02-20T07:12:44.918Z,1004.75
2017-02-20T07:13:54.672Z,1004.74
2017-02-20T07:15:04.039Z,1004.66
2017-02-20T07:16:13.825Z,1004.61
2017-02-20T07:17:23.584Z,1004.61
2017-02-20T07:18:32.979Z,1004.59
2017-02-20T07:19:42.724Z,1004.62
2017-02-20T07:20:52.498Z,1004.56
2017-02-20T07:22:02.726Z,1004.55
2017-02-20T07:23:12.480Z,1004.56
2017-02-20T07:24:22.325Z,1004.57
2017-02-20T07:25:32.110Z,1004.51
2017-02-20T07:26:42.327Z,1004.49
2017-02-20T07:27:52.088Z,1004.36
2017-02-20T07:29:02.311Z,1004.31
2017-02-20T07:30:12.116Z,1004.26
2017-02-20T07:31:21.432Z,1004.23
2017-02-20T07:32:31.205Z,1004.18
2017-02-20T07:33:41.426Z,1004.14
2017-02-20T07:34:52.088Z,1004.16
2017-02-20T07:36:02.411Z,1004.2
2017-02-20T07:37:12.167Z,1004.14
2017-02-20T07:38:21.955Z,1004.21
2017-02-20T07:39:31.728Z,1004.13
2017-02-20T07:40:41.495Z,1004.2
2017-02-20T07:41:51.294Z,1004.17
2017-02-20T07:43:01.052Z,1004.19
2017-02-20T07:44:11.265Z,1004.12
2017-02-20T07:45:21.018Z,1004.14
2017-02-20T07:46:31.219Z,1004.16
2017-02-20T07:47:41.474Z,1004.09
2017-02-20T07:48:50.795Z,1004.14
2017-02-20T07:50:00.124Z,1004.08
2017-02-20T07:51:09.468Z,1004.03
2017-02-20T07:52:19.217Z,1003.95
2017-02-20T07:53:29.034Z,1003.94
2017-02-20T07:54:38.791Z,1003.94
2017-02-20T07:55:48.544Z,1003.91
2017-02-20T07:56:58.322Z,1003.89
2017-02-20T07:58:08.527Z,1003.82
2017-02-20T07:59:18.792Z,1003.73
2017-02-20T08:00:28.554Z,1003.7
2017-02-20T08:01:37.902Z,1003.67
2017-02-20T08:02:48.097Z,1003.67
2017-02-20T08:03:57.848Z,1003.55
2017-02-20T08:05:07.686Z,1003.55
2017-02-20T08:06:17.903Z,1003.49
2017-02-20T08:07:27.686Z,1003.56
2017-02-20T08:08:37.013Z,1003.53
2017-02-20T08:09:46.816Z,1003.51
2017-02-20T08:10:56.776Z,1003.54
2017-02-20T08:12:06.581Z,1003.5
2017-02-20T08:13:16.334Z,1003.49
2017-02-20T08:14:26.991Z,1003.51
2017-02-20T08:15:36.760Z,1003.51
2017-02-20T08:16:46.583Z,1003.51
2017-02-20T08:17:55.912Z,1003.53
2017-02-20T08:19:05.708Z,1003.53
2017-02-20T08:20:15.905Z,1003.56
2017-02-20T08:21:26.126Z,1003.57
2017-02-20T08:22:36.365Z,1003.51
2017-02-20T08:23:46.124Z,1003.47
2017-02-20T08:24:55.898Z,1003.47
2017-02-20T08:26:06.112Z,1003.43
2017-02-20T08:27:15.445Z,1003.43
2017-02-20T08:28:25.717Z,1003.47
2017-02-20T08:29:35.922Z,1003.53
2017-02-20T08:30:45.679Z,1003.49
2017-02-20T08:31:55.925Z,1003.5
2017-02-20T08:33:05.690Z,1003.51
2017-02-20T08:34:15.939Z,1003.53
2017-02-20T08:35:25.724Z,1003.53
2017-02-20T08:36:35.521Z,1003.56
2017-02-20T08:37:45.311Z,1003.56
2017-02-20T08:38:55.516Z,1003.53
2017-02-20T08:40:05.325Z,1003.5
2017-02-20T08:41:15.078Z,1003.53
2017-02-20T08:42:24.847Z,1003.5
2017-02-20T08:43:35.048Z,1003.53
2017-02-20T08:44:44.374Z,1003.58
2017-02-20T08:45:54.172Z,1003.58
2017-02-20T08:47:03.524Z,1003.59
2017-02-20T08:48:13.285Z,1003.54
2017-02-20T08:49:23.062Z,1003.61
2017-02-20T08:50:32.823Z,1003.64
2017-02-20T08:51:43.080Z,1003.61
2017-02-20T08:52:52.838Z,1003.57
2017-02-20T08:54:02.591Z,1003.59
2017-02-20T08:55:12.356Z,1003.61
2017-02-20T08:56:22.133Z,1003.56
2017-02-20T08:57:32.398Z,1003.62
2017-02-20T08:58:42.156Z,1003.61
2017-02-20T08:59:52.383Z,1003.54
2017-02-20T09:01:02.190Z,1003.56
2017-02-20T09:02:11.983Z,1003.53
2017-02-20T09:03:22.273Z,1003.56
2017-02-20T09:04:32.045Z,1003.51
2017-02-20T09:05:42.245Z,1003.45
2017-02-20T09:06:51.564Z,1003.42
2017-02-20T09:08:02.211Z,1003.43
2017-02-20T09:09:11.594Z,1003.39
2017-02-20T09:10:21.803Z,1003.47
2017-02-20T09:11:32.012Z,1003.4
2017-02-20T09:12:41.786Z,1003.48
2017-02-20T09:13:51.547Z,1003.42
2017-02-20T09:15:01.808Z,1003.49
2017-02-20T09:16:11.581Z,1003.46
2017-02-20T09:17:21.802Z,1003.48
2017-02-20T09:18:31.571Z,1003.43
2017-02-20T09:19:41.797Z,1003.43
2017-02-20T09:20:51.770Z,1003.41
2017-02-20T09:22:01.979Z,1003.37
2017-02-20T09:23:11.741Z,1003.35
2017-02-20T09:24:21.941Z,1003.33
2017-02-20T09:25:31.291Z,1003.38
2017-02-20T09:26:41.695Z,1003.38
2017-02-20T09:27:51.461Z,1003.33
2017-02-20T09:29:01.659Z,1003.31
2017-02-20T09:30:11.868Z,1003.37
2017-02-20T09:31:22.081Z,1003.37
2017-02-20T09:32:31.906Z,1003.31
2017-02-20T09:33:42.104Z,1003.28
2017-02-20T09:34:51.877Z,1003.19
2017-02-20T09:36:01.642Z,1003.15
2017-02-20T09:37:11.411Z,1003.16
2017-02-20T09:38:21.288Z,1003.09
2017-02-20T09:39:31.487Z,1003.1
2017-02-20T09:40:40.835Z,1003.08
2017-02-20T09:41:50.612Z,1003.05
2017-02-20T09:43:00.365Z,1003.02
2017-02-20T09:44:10.658Z,1003.02
2017-02-20T09:45:20.436Z,1002.98
2017-02-20T09:46:30.209Z,1002.94
2017-02-20T09:47:39.980Z,1002.97
2017-02-20T09:48:49.739Z,1002.92
2017-02-20T09:49:59.552Z,1002.94
2017-02-20T09:51:09.325Z,1002.95
2017-02-20T09:52:19.536Z,1002.88
2017-02-20T09:53:28.900Z,1002.89
2017-02-20T09:54:39.537Z,1002.88
2017-02-20T09:55:49.370Z,1002.89
2017-02-20T09:56:59.119Z,1002.85
2017-02-20T09:58:10.208Z,1002.81
2017-02-20T09:59:20.409Z,1002.79
2017-02-20T10:00:30.611Z,1002.79
2017-02-20T10:01:40.856Z,1002.75
2017-02-20T10:02:51.057Z,1002.72
2017-02-20T10:04:01.698Z,1002.73
2017-02-20T10:05:11.943Z,1002.69
2017-02-20T10:06:21.720Z,1002.7
2017-02-20T10:07:31.565Z,1002.67
2017-02-20T10:08:41.323Z,1002.64
2017-02-20T10:09:50.637Z,1002.62
2017-02-20T10:11:00.413Z,1002.53
2017-02-20T10:12:10.618Z,1002.57
2017-02-20T10:13:20.451Z,1002.59
2017-02-20T10:14:30.208Z,1002.6
2017-02-20T10:15:40.021Z,1002.61
2017-02-20T10:16:50.258Z,1002.59
2017-02-20T10:18:00.499Z,1002.57
2017-02-20T10:19:10.334Z,1002.61
2017-02-20T10:20:20.554Z,1002.53
2017-02-20T10:21:30.331Z,1002.59
2017-02-20T10:22:40.972Z,1002.69
2017-02-20T10:23:51.169Z,1002.65
2017-02-20T10:25:01.434Z,1002.69
2017-02-20T10:26:11.191Z,1002.72
2017-02-20T10:27:20.957Z,1002.77
2017-02-20T10:28:30.730Z,1002.7
2017-02-20T10:29:40.523Z,1002.71
2017-02-20T10:30:50.348Z,1002.68
2017-02-20T10:32:00.125Z,1002.69
2017-02-20T10:33:10.358Z,1002.65
2017-02-20T10:34:20.156Z,1002.65
2017-02-20T10:35:30.369Z,1002.6
2017-02-20T10:36:40.198Z,1002.66
2017-02-20T10:37:49.995Z,1002.61
2017-02-20T10:38:59.752Z,1002.63
2017-02-20T10:40:09.515Z,1002.62
2017-02-20T10:41:20.171Z,1002.54
2017-02-20T10:42:29.992Z,1002.47
2017-02-20T10:43:39.737Z,1002.48
2017-02-20T10:44:49.954Z,1002.48
2017-02-20T10:46:00.155Z,1002.48
2017-02-20T10:47:10.349Z,1002.44
2017-02-20T10:48:20.166Z,1002.43
2017-02-20T10:49:29.955Z,1002.49
2017-02-20T10:50:39.728Z,1002.44
2017-02-20T10:51:49.482Z,1002.42
2017-02-20T10:52:59.683Z,1002.34
2017-02-20T10:54:10.376Z,1002.45
2017-02-20T10:55:20.131Z,1002.31
2017-02-20T10:56:30.775Z,1002.3
2017-02-20T10:57:40.556Z,1002.28
2017-02-20T10:58:50.332Z,1002.25
2017-02-20T11:00:00.257Z,1002.26
2017-02-20T11:01:10.475Z,1002.2
2017-02-20T11:02:20.274Z,1002.23
2017-02-20T11:03:30.057Z,1002.23
2017-02-20T11:04:39.846Z,1002.25
2017-02-20T11:05:49.668Z,1002.25
2017-02-20T11:06:59.445Z,1002.23
2017-02-20T11:08:09.662Z,1002.22
2017-02-20T11:09:19.419Z,1002.27
2017-02-20T11:10:29.188Z,1002.17
2017-02-20T11:11:39.435Z,1002.2
2017-02-20T11:12:48.771Z,1002.22
2017-02-20T11:13:59.412Z,1002.2
2017-02-20T11:15:09.158Z,1002.23
2017-02-20T11:16:18.479Z,1002.22
2017-02-20T11:17:28.735Z,1002.18
2017-02-20T11:18:39.381Z,1002.19
2017-02-20T11:19:49.594Z,1002.19
2017-02-20T11:20:59.791Z,1002.17
2017-02-20T11:22:10.452Z,1002.13
2017-02-20T11:23:20.262Z,1002.1
2017-02-20T11:24:30.026Z,1002.06
2017-02-20T11:25:40.233Z,1002.1
2017-02-20T11:26:49.554Z,1001.98
2017-02-20T11:27:58.910Z,1001.99
2017-02-20T11:29:08.727Z,1001.95
2017-02-20T11:30:18.500Z,1001.95
2017-02-20T11:31:28.262Z,1001.92
2017-02-20T11:32:38.461Z,1001.93
2017-02-20T11:33:47.784Z,1001.95
2017-02-20T11:34:57.589Z,1001.86
2017-02-20T11:36:07.367Z,1001.89
2017-02-20T11:37:18.012Z,1001.81
2017-02-20T11:38:28.213Z,1001.86
2017-02-20T11:39:37.974Z,1001.89
2017-02-20T11:40:47.803Z,1001.87
2017-02-20T11:41:57.572Z,1001.86
2017-02-20T11:43:07.792Z,1001.94
2017-02-20T11:44:17.115Z,1001.85
2017-02-20T11:45:27.308Z,1001.78
2017-02-20T11:46:37.757Z,1001.77
2017-02-20T11:47:47.971Z,1001.73
2017-02-20T11:48:57.724Z,1001.75
2017-02-20T11:50:07.922Z,1001.74
2017-02-20T11:51:17.726Z,1001.76
2017-02-20T11:52:27.543Z,1001.76
2017-02-20T11:53:37.308Z,1001.7
2017-02-20T11:54:47.509Z,1001.68
2017-02-20T11:55:57.299Z,1001.7
2017-02-20T11:57:07.544Z,1001.67
2017-02-20T11:58:17.357Z,1001.62
2017-02-20T11:59:27.106Z,1001.61
2017-02-20T12:00:37.347Z,1001.61
2017-02-20T12:01:47.593Z,1001.64
2017-02-20T12:02:57.360Z,1001.65
2017-02-20T12:04:07.179Z,1001.58
2017-02-20T12:05:16.924Z,1001.55
2017-02-20T12:06:27.134Z,1001.5
2017-02-20T12:07:36.906Z,1001.46
2017-02-20T12:08:47.120Z,1001.43
2017-02-20T12:09:57.381Z,1001.5
2017-02-20T12:11:07.134Z,1001.37
2017-02-20T12:12:16.911Z,1001.4
2017-02-20T12:13:27.564Z,1001.34
2017-02-20T12:14:37.322Z,1001.32
2017-02-20T12:15:47.137Z,1001.3
2017-02-20T12:16:56.492Z,1001.32
2017-02-20T12:18:06.277Z,1001.25
2017-02-20T12:19:16.510Z,1001.29
2017-02-20T12:20:26.319Z,1001.22
2017-02-20T12:21:36.565Z,1001.2
2017-02-20T12:22:45.882Z,1001.17
2017-02-20T12:23:55.648Z,1001.17
2017-02-20T12:25:04.964Z,1001.1
2017-02-20T12:26:15.157Z,1001.08
2017-02-20T12:27:24.988Z,1001.03
2017-02-20T12:28:34.308Z,1001.03
2017-02-20T12:29:44.101Z,1001.01
2017-02-20T12:30:53.866Z,1001.07
2017-02-20T12:32:04.089Z,1001.02
2017-02-20T12:33:13.900Z,1000.89
2017-02-20T12:34:23.674Z,1000.93
2017-02-20T12:35:33.899Z,1000.75
2017-02-20T12:36:44.101Z,1000.87
2017-02-20T12:37:53.449Z,1000.82
2017-02-20T12:39:03.266Z,1000.79
2017-02-20T12:40:13.035Z,1000.88
2017-02-20T12:41:22.805Z,1000.73
2017-02-20T12:42:32.558Z,1000.83
2017-02-20T12:43:42.347Z,1000.76
2017-02-20T12:44:52.616Z,1000.72
2017-02-20T12:46:02.378Z,1000.76
2017-02-20T12:47:12.574Z,1000.76
2017-02-20T12:48:22.328Z,1000.6
2017-02-20T12:49:32.109Z,1000.65
2017-02-20T12:50:41.942Z,1000.62
2017-02-20T12:51:51.691Z,1000.67
2017-02-20T12:53:01.457Z,1000.56
2017-02-20T12:54:11.217Z,1000.57
2017-02-20T12:55:20.975Z,1000.58
2017-02-20T12:56:30.796Z,1000.51
2017-02-20T12:57:40.561Z,1000.47
2017-02-20T12:58:50.790Z,1000.47
2017-02-20T13:00:00.564Z,1000.27
2017-02-20T13:01:10.322Z,1000.53
2017-02-20T13:02:19.806Z,1000.63
2017-02-20T13:03:29.575Z,1000.44
2017-02-20T13:04:39.331Z,1000.44
2017-02-20T13:05:49.541Z,1000.37
2017-02-20T13:06:59.299Z,1000.35
2017-02-20T13:08:09.756Z,1000.33
2017-02-20T13:09:19.513Z,1000.34
2017-02-20T13:10:29.275Z,1000.35
2017-02-20T13:11:39.043Z,1000.39
2017-02-20T13:12:49.257Z,1000.36
2017-02-20T13:14:00.414Z,1000.31
2017-02-20T13:15:10.179Z,1000.21
2017-02-20T13:16:20.388Z,1000.2
2017-02-20T13:17:30.157Z,1000.17
2017-02-20T13:18:40.366Z,1000.14
2017-02-20T13:19:51.060Z,1000.13
2017-02-20T13:21:00.857Z,1000.13
2017-02-20T13:22:10.614Z,1000.09
2017-02-20T13:23:20.388Z,1000
2017-02-20T13:24:30.162Z,999.94
2017-02-20T13:25:39.983Z,999.94
2017-02-20T13:26:49.739Z,999.93
2017-02-20T13:27:59.073Z,999.88
2017-02-20T13:29:08.407Z,999.9
2017-02-20T13:30:18.176Z,999.94
2017-02-20T13:31:28.001Z,999.92
2017-02-20T13:32:37.359Z,999.88
2017-02-20T13:33:46.717Z,999.79
2017-02-20T13:34:56.916Z,999.88
2017-02-20T13:36:06.250Z,999.81
2017-02-20T13:37:15.631Z,999.74
2017-02-20T13:38:25.840Z,999.81
2017-02-20T13:39:35.165Z,999.73
2017-02-20T13:40:44.490Z,999.74
2017-02-20T13:41:54.314Z,999.66
2017-02-20T13:43:03.709Z,999.65
2017-02-20T13:44:13.046Z,999.54
2017-02-20T13:45:22.379Z,999.63
2017-02-20T13:46:31.696Z,999.59
2017-02-20T13:47:41.912Z,999.6
2017-02-20T13:48:51.738Z,999.64
2017-02-20T13:50:01.051Z,999.69
2017-02-20T13:51:10.384Z,999.52
2017-02-20T13:52:19.722Z,999.55
2017-02-20T13:53:29.507Z,999.51
2017-02-20T13:54:38.876Z,999.59
2017-02-20T13:55:48.206Z,999.57
2017-02-20T13:56:58.408Z,999.56
2017-02-20T13:58:08.174Z,999.61
2017-02-20T13:59:17.493Z,999.59
2017-02-20T14:00:26.870Z,999.57
2017-02-20T14:01:36.215Z,999.59
2017-02-20T14:02:45.972Z,999.56
2017-02-20T14:03:55.286Z,999.6
2017-02-20T14:05:05.075Z,999.6
2017-02-20T14:06:14.892Z,999.68
2017-02-20T14:07:24.649Z,999.67
2017-02-20T14:08:33.974Z,999.67
2017-02-20T14:09:43.312Z,999.8